Terminal Aerodrome Forecast
Issued by NWS

Current Version | Previous Version | Text Only | Print | Product List | Glossary On
Versions: 1 2 3 4 5 6 7 8 9 10 11 12 13 14 15 16 17 18 19 20 21 22 23 24 25 26 27 28 29 30 31 32 33 34 35 36
054
FTUS41 KBOX 092341
TAFBAF
TAF
KBAF 092341Z 1000/1024 00000KT P6SM SCT035 OVC060
     FM100200 00000KT P6SM OVC030
     FM100300 00000KT P6SM OVC020
     FM100400 00000KT P6SM OVC025
     FM100600 00000KT P6SM OVC040
     FM101100 00000KT P6SM VCSH OVC020
     FM102100 24005KT P6SM OVC035=

USA.gov is the U.S. government's official web portal to all federal, state and local government web resources and services.